Portada
METAR-TAF:

METAR-TAF

Aeroports :

Bintulu, Malàisia

latitud: 03-12N, longitud: 113-02E, altitud: 2 m

Observació

L'informe es va fer fa 1 hora i 21 minuts, a les 16:00 UTC
Vent 2 kt amb direcció variable
Temperatura 27°C
Humitat 94%
Pressió 1013 hPa
Visibilitat 10 km o més
Núvols disperses a una alçada de 1600 ft
Cel ennuvolat a una alçada de 15000 ft

METAR: WBGB 211600Z VRB02KT 9999 SCT016 BKN150 27/26 Q1013

Hora: 01:21 (17:21 UTC)

Pronòstic

L'informe es va fer fa 6 hores i 21 minuts, a les 11:00 UTC
Pronòstic vàlid del 21 a les 12 UTC al 22 a les 12 UTC
Vent 6 kt del Nord/Nord-Oest
Visibilitat 10 km o més
Núvols disperses a una alçada de 1600 ft

TAF: WBGB 211100Z 2112/2212 33006KT 9999 SCT016

Observacions i pronòstics meteorològics de més de 4000 aeroports (METAR i TAF).

Les estacions disponibles són els punts grocs i vermells al mapa.

Posi el ratolí al punt desitjat per veure el nom de l'estació.

Feu clic per veure les observacions i els pronòstics meteorològics.

Per canviar el mapa: feu clic els botons verds amb una creu de color negre per apropar; al botó verd amb un guió per allunyar la imatge; o en les fletxes verdes per a mapes adjacents.


METAR-TAF: